createdAt,value
2018-05-16T00:00:21.241Z,0
2018-05-16T00:01:23.242Z,0
2018-05-16T00:02:25.246Z,0
2018-05-16T00:03:27.240Z,0
2018-05-16T00:04:29.244Z,0
2018-05-16T00:05:31.244Z,0
2018-05-16T00:06:33.298Z,0
2018-05-16T00:07:35.292Z,0
2018-05-16T00:08:37.682Z,0
2018-05-16T00:09:39.666Z,0
2018-05-16T00:10:41.673Z,0
2018-05-16T00:11:43.667Z,0
2018-05-16T00:12:45.669Z,0
2018-05-16T00:13:48.247Z,0
2018-05-16T00:14:50.943Z,0
2018-05-16T00:15:52.987Z,0
2018-05-16T00:16:55.011Z,0
2018-05-16T00:17:57.002Z,0
2018-05-16T00:18:59.397Z,0
2018-05-16T00:20:01.392Z,0
2018-05-16T00:21:03.767Z,0
2018-05-16T00:22:05.792Z,0
2018-05-16T00:23:07.919Z,0
2018-05-16T00:24:09.913Z,0
2018-05-16T00:25:11.906Z,0
2018-05-16T00:26:13.894Z,0
2018-05-16T00:27:15.896Z,0
2018-05-16T00:28:17.891Z,0
2018-05-16T00:29:19.950Z,0
2018-05-16T00:30:21.933Z,0
2018-05-16T00:31:24.207Z,0
2018-05-16T00:32:26.204Z,0
2018-05-16T00:33:28.248Z,0
2018-05-16T00:34:30.245Z,0
2018-05-16T00:35:32.249Z,0
2018-05-16T00:36:34.628Z,0
2018-05-16T00:37:36.630Z,0
2018-05-16T00:38:38.626Z,0
2018-05-16T00:39:40.628Z,0
2018-05-16T00:40:42.620Z,0
2018-05-16T00:41:44.616Z,0
2018-05-16T00:42:46.615Z,0
2018-05-16T00:43:48.622Z,0
2018-05-16T00:44:50.627Z,0
2018-05-16T00:45:52.913Z,0
2018-05-16T00:46:55.115Z,0
2018-05-16T00:47:57.120Z,0
2018-05-16T00:48:59.114Z,0
2018-05-16T00:50:01.408Z,0
2018-05-16T00:51:03.493Z,0
2018-05-16T00:52:05.528Z,0
2018-05-16T00:53:07.532Z,0
2018-05-16T00:54:09.520Z,0
2018-05-16T00:55:11.653Z,0
2018-05-16T00:56:13.655Z,0
2018-05-16T00:57:15.650Z,0
2018-05-16T00:58:18.029Z,0
2018-05-16T00:59:20.103Z,0
2018-05-16T01:00:22.097Z,0
2018-05-16T01:01:24.084Z,0
2018-05-16T01:02:26.085Z,0
2018-05-16T01:03:28.481Z,0
2018-05-16T01:04:30.475Z,0
2018-05-16T01:05:33.135Z,0
2018-05-16T01:06:35.138Z,0
2018-05-16T01:07:37.178Z,0
2018-05-16T01:08:39.255Z,0
2018-05-16T01:09:41.252Z,0
2018-05-16T01:10:43.256Z,0
2018-05-16T01:11:45.256Z,0
2018-05-16T01:12:47.404Z,0
2018-05-16T01:13:49.688Z,0
2018-05-16T01:14:51.694Z,0
2018-05-16T01:15:53.680Z,0
2018-05-16T01:16:55.885Z,0
2018-05-16T01:17:57.900Z,0
2018-05-16T01:18:59.896Z,0
2018-05-16T01:20:02.169Z,0
2018-05-16T01:21:04.710Z,0
2018-05-16T01:22:07.077Z,0
2018-05-16T01:23:09.072Z,0
2018-05-16T01:24:11.362Z,0
2018-05-16T01:25:13.362Z,0
2018-05-16T01:26:15.360Z,0
2018-05-16T01:27:17.798Z,0
2018-05-16T01:28:19.967Z,0
2018-05-16T01:29:22.274Z,0
2018-05-16T01:30:24.291Z,0
2018-05-16T01:31:26.308Z,0
2018-05-16T01:32:28.306Z,0
2018-05-16T01:33:30.307Z,0
2018-05-16T01:34:32.589Z,0
2018-05-16T01:35:34.583Z,0
2018-05-16T01:36:36.586Z,0
2018-05-16T01:37:39.043Z,0
2018-05-16T01:38:41.212Z,0
2018-05-16T01:39:43.203Z,0
2018-05-16T01:40:45.194Z,0
2018-05-16T01:41:47.472Z,0
2018-05-16T01:42:49.474Z,0
2018-05-16T01:43:52.028Z,0
2018-05-16T01:44:54.021Z,0
2018-05-16T01:45:56.316Z,0
2018-05-16T01:46:58.309Z,0
2018-05-16T01:48:00.308Z,0
2018-05-16T01:49:02.875Z,0
2018-05-16T01:50:04.867Z,0
2018-05-16T01:51:07.462Z,0
2018-05-16T01:52:09.457Z,0
2018-05-16T01:53:11.457Z,0
2018-05-16T01:54:13.461Z,0
2018-05-16T01:55:15.456Z,0
2018-05-16T01:56:17.452Z,0
2018-05-16T01:57:19.455Z,0
2018-05-16T01:58:21.467Z,0
2018-05-16T01:59:24.139Z,0
2018-05-16T02:00:26.137Z,0
2018-05-16T02:01:28.535Z,0
2018-05-16T02:02:30.526Z,0
2018-05-16T02:03:32.518Z,0
2018-05-16T02:04:34.518Z,0
2018-05-16T02:05:36.513Z,0
2018-05-16T02:06:38.507Z,0
2018-05-16T02:07:40.793Z,0
2018-05-16T02:08:42.781Z,0
2018-05-16T02:09:45.114Z,0
2018-05-16T02:10:47.098Z,0
2018-05-16T02:11:49.481Z,0
2018-05-16T02:12:51.771Z,0
2018-05-16T02:13:53.767Z,0
2018-05-16T02:14:55.759Z,0
2018-05-16T02:15:58.039Z,0
2018-05-16T02:17:00.035Z,0
2018-05-16T02:18:02.041Z,0
2018-05-16T02:19:04.033Z,0
2018-05-16T02:20:06.035Z,0
2018-05-16T02:21:08.370Z,0
2018-05-16T02:22:10.383Z,0
2018-05-16T02:23:12.375Z,0
2018-05-16T02:24:14.370Z,0
2018-05-16T02:25:16.362Z,0
2018-05-16T02:26:18.364Z,0
2018-05-16T02:27:20.363Z,0
2018-05-16T02:28:22.357Z,0
2018-05-16T02:29:24.352Z,0
2018-05-16T02:30:26.356Z,0
2018-05-16T02:31:28.352Z,0
2018-05-16T02:32:30.656Z,0
2018-05-16T02:33:32.959Z,0
2018-05-16T02:34:34.962Z,0
2018-05-16T02:35:36.973Z,0
2018-05-16T02:36:38.961Z,0
2018-05-16T02:37:41.247Z,0
2018-05-16T02:38:43.254Z,0
2018-05-16T02:39:45.241Z,0
2018-05-16T02:40:47.819Z,0
2018-05-16T02:41:49.809Z,0
2018-05-16T02:42:51.803Z,0
2018-05-16T02:43:54.082Z,0
2018-05-16T02:44:56.083Z,0
2018-05-16T02:45:58.087Z,0
2018-05-16T02:47:00.078Z,0
2018-05-16T02:48:02.104Z,0
2018-05-16T02:49:04.417Z,0
2018-05-16T02:50:06.698Z,0
2018-05-16T02:51:08.697Z,0
2018-05-16T02:52:10.702Z,0
2018-05-16T02:53:12.702Z,0
2018-05-16T02:54:14.695Z,0
2018-05-16T02:55:16.687Z,0
2018-05-16T02:56:18.686Z,0
2018-05-16T02:57:21.267Z,0
2018-05-16T02:58:23.258Z,0
2018-05-16T02:59:26.203Z,0
2018-05-16T03:00:28.482Z,0
2018-05-16T03:01:30.482Z,0
2018-05-16T03:02:32.483Z,0
2018-05-16T03:03:35.330Z,0
2018-05-16T03:04:37.714Z,0
2018-05-16T03:05:39.714Z,0
2018-05-16T03:06:42.001Z,0
2018-05-16T03:07:43.999Z,0
2018-05-16T03:08:46.287Z,0
2018-05-16T03:09:48.970Z,0
2018-05-16T03:10:50.968Z,1
2018-05-16T03:11:53.249Z,1
2018-05-16T03:12:55.530Z,1
2018-05-16T03:13:57.548Z,1
2018-05-16T03:14:59.545Z,1
2018-05-16T03:16:01.542Z,1
2018-05-16T03:17:03.822Z,1
2018-05-16T03:18:06.113Z,1
2018-05-16T03:19:08.117Z,1
2018-05-16T03:20:10.106Z,1
2018-05-16T03:21:12.106Z,1
2018-05-16T03:22:14.096Z,1
2018-05-16T03:23:16.074Z,1
2018-05-16T03:24:18.073Z,1
2018-05-16T03:25:20.074Z,1
2018-05-16T03:26:22.071Z,1
2018-05-16T03:27:24.068Z,2
2018-05-16T03:28:26.449Z,2
2018-05-16T03:29:28.457Z,2
2018-05-16T03:30:31.119Z,2
2018-05-16T03:31:33.703Z,2
2018-05-16T03:32:35.703Z,2
2018-05-16T03:33:37.702Z,2
2018-05-16T03:34:39.693Z,3
2018-05-16T03:35:41.684Z,3
2018-05-16T03:36:43.691Z,3
2018-05-16T03:37:45.956Z,3
2018-05-16T03:38:47.955Z,3
2018-05-16T03:39:49.962Z,3
2018-05-16T03:40:51.955Z,3
2018-05-16T03:41:53.955Z,4
2018-05-16T03:42:55.952Z,4
2018-05-16T03:43:57.941Z,5
2018-05-16T03:44:59.942Z,5
2018-05-16T03:46:02.206Z,6
2018-05-16T03:47:04.493Z,6
2018-05-16T03:48:06.493Z,6
2018-05-16T03:49:08.488Z,7
2018-05-16T03:50:10.482Z,6
2018-05-16T03:51:12.483Z,6
2018-05-16T03:52:14.484Z,6
2018-05-16T03:53:16.510Z,7
2018-05-16T03:54:18.489Z,7
2018-05-16T03:55:20.494Z,8
2018-05-16T03:56:22.485Z,8
2018-05-16T03:57:24.484Z,8
2018-05-16T03:58:26.486Z,9
2018-05-16T03:59:28.767Z,9
2018-05-16T04:00:30.767Z,10
2018-05-16T04:01:33.148Z,10
2018-05-16T04:02:35.138Z,10
2018-05-16T04:03:37.428Z,10
2018-05-16T04:04:39.715Z,10
2018-05-16T04:05:41.724Z,10
2018-05-16T04:06:43.720Z,11
2018-05-16T04:07:45.721Z,11
2018-05-16T04:08:47.722Z,11
2018-05-16T04:09:49.716Z,12
2018-05-16T04:10:52.017Z,12
2018-05-16T04:11:54.019Z,13
2018-05-16T04:12:56.004Z,13
2018-05-16T04:13:58.005Z,14
2018-05-16T04:14:59.998Z,14
2018-05-16T04:16:01.991Z,14
2018-05-16T04:17:03.988Z,15
2018-05-16T04:18:05.975Z,15
2018-05-16T04:19:08.254Z,15
2018-05-16T04:20:10.261Z,15
2018-05-16T04:21:12.259Z,16
2018-05-16T04:22:14.257Z,16
2018-05-16T04:23:16.252Z,17
2018-05-16T04:24:18.263Z,17
2018-05-16T04:25:20.239Z,18
2018-05-16T04:26:22.244Z,18
2018-05-16T04:27:24.637Z,18
2018-05-16T04:28:26.632Z,19
2018-05-16T04:29:28.630Z,19
2018-05-16T04:30:30.634Z,19
2018-05-16T04:31:32.635Z,19
2018-05-16T04:32:35.093Z,20
2018-05-16T04:33:37.655Z,20
2018-05-16T04:34:39.653Z,21
2018-05-16T04:35:41.652Z,21
2018-05-16T04:36:43.645Z,22
2018-05-16T04:37:45.933Z,22
2018-05-16T04:38:47.938Z,23
2018-05-16T04:39:49.939Z,24
2018-05-16T04:40:51.931Z,25
2018-05-16T04:41:53.928Z,26
2018-05-16T04:42:55.920Z,26
2018-05-16T04:43:57.912Z,27
2018-05-16T04:45:00.293Z,28
2018-05-16T04:46:02.307Z,27
2018-05-16T04:47:04.298Z,28
2018-05-16T04:48:06.674Z,28
2018-05-16T04:49:08.670Z,29
2018-05-16T04:50:11.048Z,29
2018-05-16T04:51:13.046Z,30
2018-05-16T04:52:15.433Z,31
2018-05-16T04:53:17.431Z,32
2018-05-16T04:54:19.732Z,33
2018-05-16T04:55:21.733Z,34
2018-05-16T04:56:23.723Z,34
2018-05-16T04:57:25.722Z,35
2018-05-16T04:58:27.725Z,36
2018-05-16T04:59:29.724Z,37
2018-05-16T05:00:31.732Z,38
2018-05-16T05:01:33.726Z,38
2018-05-16T05:02:36.102Z,39
2018-05-16T05:03:38.099Z,40
2018-05-16T05:04:40.088Z,41
2018-05-16T05:05:42.093Z,41
2018-05-16T05:06:44.092Z,41
2018-05-16T05:07:46.099Z,41
2018-05-16T05:08:48.631Z,41
2018-05-16T05:09:50.921Z,40
2018-05-16T05:10:52.918Z,40
2018-05-16T05:11:54.916Z,40
2018-05-16T05:12:56.911Z,39
2018-05-16T05:13:58.911Z,39
2018-05-16T05:15:00.910Z,39
2018-05-16T05:16:02.909Z,39
2018-05-16T05:17:04.905Z,39
2018-05-16T05:18:06.943Z,39
2018-05-16T05:19:08.910Z,40
2018-05-16T05:20:10.908Z,39
2018-05-16T05:21:12.902Z,40
2018-05-16T05:22:14.905Z,41
2018-05-16T05:23:16.906Z,42
2018-05-16T05:24:18.911Z,43
2018-05-16T05:25:20.905Z,44
2018-05-16T05:26:22.917Z,45
2018-05-16T05:27:24.915Z,45
2018-05-16T05:28:26.905Z,46
2018-05-16T05:29:29.293Z,46
2018-05-16T05:30:31.293Z,46
2018-05-16T05:31:33.982Z,47
2018-05-16T05:32:35.973Z,47
2018-05-16T05:33:37.968Z,47
2018-05-16T05:34:40.258Z,48
2018-05-16T05:35:42.263Z,49
2018-05-16T05:36:44.648Z,51
2018-05-16T05:37:46.945Z,52
2018-05-16T05:38:48.949Z,52
2018-05-16T05:39:50.951Z,53
2018-05-16T05:40:52.947Z,53
2018-05-16T05:41:54.947Z,54
2018-05-16T05:42:56.945Z,54
2018-05-16T05:43:59.237Z,55
2018-05-16T05:45:01.237Z,54
2018-05-16T05:46:03.230Z,54
2018-05-16T05:47:05.534Z,55
2018-05-16T05:48:07.521Z,55
2018-05-16T05:49:10.273Z,55
2018-05-16T05:50:12.554Z,56
2018-05-16T05:51:14.559Z,57
2018-05-16T05:52:16.864Z,57
2018-05-16T05:53:18.856Z,57
2018-05-16T05:54:21.146Z,58
2018-05-16T05:55:23.144Z,59
2018-05-16T05:56:25.142Z,61
2018-05-16T05:57:27.145Z,61
2018-05-16T05:58:29.154Z,62
2018-05-16T05:59:31.141Z,63
2018-05-16T06:00:33.140Z,63
2018-05-16T06:01:35.143Z,64
2018-05-16T06:02:37.149Z,63
2018-05-16T06:03:39.148Z,63
2018-05-16T06:04:41.717Z,65
2018-05-16T06:05:43.717Z,65
2018-05-16T06:06:45.719Z,66
2018-05-16T06:07:47.712Z,67
2018-05-16T06:08:49.708Z,67
2018-05-16T06:09:51.701Z,68
2018-05-16T06:10:53.708Z,69
2018-05-16T06:11:56.000Z,70
2018-05-16T06:12:57.999Z,71
2018-05-16T06:14:00.005Z,72
2018-05-16T06:15:01.999Z,73
2018-05-16T06:16:04.008Z,72
2018-05-16T06:17:06.005Z,75
2018-05-16T06:18:08.303Z,71
2018-05-16T06:19:10.353Z,70
2018-05-16T06:20:12.303Z,68
2018-05-16T06:21:14.292Z,69
2018-05-16T06:22:16.290Z,69
2018-05-16T06:23:18.292Z,69
2018-05-16T06:24:20.291Z,69
2018-05-16T06:25:22.486Z,69
2018-05-16T06:26:24.488Z,67
2018-05-16T06:27:26.522Z,66
2018-05-16T06:28:28.487Z,65
2018-05-16T06:29:30.485Z,63
2018-05-16T06:30:32.772Z,62
2018-05-16T06:31:34.774Z,63
2018-05-16T06:32:36.790Z,67
2018-05-16T06:33:38.766Z,71
2018-05-16T06:34:40.765Z,72
2018-05-16T06:35:42.767Z,73
2018-05-16T06:36:45.151Z,73
2018-05-16T06:37:47.148Z,72
2018-05-16T06:38:49.152Z,72
2018-05-16T06:39:51.138Z,71
2018-05-16T06:40:53.138Z,71
2018-05-16T06:41:55.144Z,71
2018-05-16T06:42:57.145Z,71
2018-05-16T06:43:59.153Z,72
2018-05-16T06:45:01.152Z,72
2018-05-16T06:46:03.168Z,72
2018-05-16T06:47:05.830Z,73
2018-05-16T06:48:07.831Z,74
2018-05-16T06:49:09.833Z,76
2018-05-16T06:50:12.109Z,79
2018-05-16T06:51:14.118Z,82
2018-05-16T06:52:16.122Z,84
2018-05-16T06:53:18.124Z,86
2018-05-16T06:54:20.130Z,89
2018-05-16T06:55:22.131Z,91
2018-05-16T06:56:24.174Z,96
2018-05-16T06:57:26.141Z,98
2018-05-16T06:58:28.521Z,98
2018-05-16T06:59:30.814Z,101
2018-05-16T07:00:33.095Z,100
2018-05-16T07:01:35.095Z,95
2018-05-16T07:02:37.099Z,90
2018-05-16T07:03:39.102Z,84
2018-05-16T07:04:41.107Z,81
2018-05-16T07:05:43.118Z,78
2018-05-16T07:06:45.395Z,75
2018-05-16T07:07:47.398Z,74
2018-05-16T07:08:49.407Z,75
2018-05-16T07:09:51.705Z,79
2018-05-16T07:10:53.706Z,86
2018-05-16T07:11:55.706Z,88
2018-05-16T07:12:57.703Z,87
2018-05-16T07:13:59.717Z,86
2018-05-16T07:15:01.721Z,88
2018-05-16T07:16:03.730Z,87
2018-05-16T07:17:05.731Z,81
2018-05-16T07:18:07.742Z,75
2018-05-16T07:19:09.754Z,69
2018-05-16T07:20:11.756Z,67
2018-05-16T07:21:13.764Z,67
2018-05-16T07:22:15.797Z,66
2018-05-16T07:23:18.475Z,68
2018-05-16T07:24:20.504Z,69
2018-05-16T07:25:22.507Z,72
2018-05-16T07:26:24.515Z,76
2018-05-16T07:27:26.805Z,81
2018-05-16T07:28:28.809Z,82
2018-05-16T07:29:30.811Z,80
2018-05-16T07:30:33.198Z,80
2018-05-16T07:31:35.215Z,77
2018-05-16T07:32:37.215Z,78
2018-05-16T07:33:39.273Z,81
2018-05-16T07:34:41.280Z,84
2018-05-16T07:35:43.288Z,87
2018-05-16T07:36:45.339Z,86
2018-05-16T07:37:47.347Z,83
2018-05-16T07:38:49.648Z,80
2018-05-16T07:39:51.653Z,79
2018-05-16T07:40:53.966Z,78
2018-05-16T07:41:55.982Z,78
2018-05-16T07:42:57.986Z,85
2018-05-16T07:43:59.986Z,92
2018-05-16T07:45:01.990Z,100
2018-05-16T07:46:04.001Z,105
2018-05-16T07:47:06.015Z,109
2018-05-16T07:48:08.013Z,114
2018-05-16T07:49:10.030Z,122
2018-05-16T07:50:12.037Z,131
2018-05-16T07:51:14.489Z,133
2018-05-16T07:52:16.419Z,137
2018-05-16T07:53:18.444Z,137
2018-05-16T07:54:20.452Z,137
2018-05-16T07:55:22.444Z,139
2018-05-16T07:56:24.449Z,144
2018-05-16T07:57:26.456Z,141
2018-05-16T07:58:28.740Z,143
2018-05-16T07:59:30.742Z,141
2018-05-16T08:00:32.739Z,136
2018-05-16T08:01:34.747Z,130
2018-05-16T08:02:36.759Z,127
2018-05-16T08:03:38.762Z,128
2018-05-16T08:04:41.139Z,133
2018-05-16T08:05:43.146Z,133
2018-05-16T08:06:45.154Z,137
2018-05-16T08:07:47.162Z,140
2018-05-16T08:08:49.168Z,141
2018-05-16T08:09:51.555Z,126
2018-05-16T08:10:53.564Z,131
2018-05-16T08:11:55.943Z,139
2018-05-16T08:12:57.953Z,138
2018-05-16T08:13:59.971Z,138
2018-05-16T08:15:01.982Z,139
2018-05-16T08:16:03.985Z,149
2018-05-16T08:17:05.986Z,153
2018-05-16T08:18:07.994Z,141
2018-05-16T08:19:09.993Z,158
2018-05-16T08:20:11.993Z,176
2018-05-16T08:21:14.389Z,133
2018-05-16T08:22:16.781Z,108
2018-05-16T08:23:19.167Z,93
2018-05-16T08:24:21.172Z,89
2018-05-16T08:25:23.170Z,87
2018-05-16T08:26:25.458Z,87
2018-05-16T08:27:27.464Z,91
2018-05-16T08:28:29.481Z,92
2018-05-16T08:29:31.477Z,92
2018-05-16T08:30:33.487Z,92
2018-05-16T08:31:35.783Z,94
2018-05-16T08:32:37.789Z,95
2018-05-16T08:33:40.098Z,100
2018-05-16T08:34:42.108Z,106
2018-05-16T08:35:44.102Z,122
2018-05-16T08:36:46.157Z,124
2018-05-16T08:37:48.121Z,115
2018-05-16T08:38:50.119Z,119
2018-05-16T08:39:52.123Z,114
2018-05-16T08:40:54.127Z,109
2018-05-16T08:41:56.130Z,105
2018-05-16T08:42:59.053Z,105
2018-05-16T08:44:01.261Z,108
2018-05-16T08:45:03.945Z,114
2018-05-16T08:46:05.947Z,121
2018-05-16T08:47:07.941Z,127
2018-05-16T08:48:09.958Z,137
2018-05-16T08:49:11.976Z,148
2018-05-16T08:50:13.988Z,157
2018-05-16T08:51:15.997Z,155
2018-05-16T08:52:18.286Z,167
2018-05-16T08:53:20.600Z,169
2018-05-16T08:54:22.594Z,188
2018-05-16T08:55:24.605Z,180
2018-05-16T08:56:26.625Z,241
2018-05-16T08:57:28.639Z,257
2018-05-16T08:58:30.649Z,353
2018-05-16T08:59:32.670Z,338
2018-05-16T09:00:34.675Z,318
2018-05-16T09:01:36.964Z,338
2018-05-16T09:02:38.974Z,351
2018-05-16T09:03:40.996Z,304
2018-05-16T09:04:43.002Z,366
2018-05-16T09:05:45.131Z,198
2018-05-16T09:06:47.381Z,143
2018-05-16T09:07:49.401Z,151
2018-05-16T09:08:51.400Z,271
2018-05-16T09:09:53.409Z,370
2018-05-16T09:10:55.424Z,408
2018-05-16T09:11:57.482Z,324
2018-05-16T09:12:59.465Z,313
2018-05-16T09:14:01.488Z,427
2018-05-16T09:15:03.507Z,442
2018-05-16T09:16:05.538Z,421
2018-05-16T09:17:07.544Z,222
2018-05-16T09:18:09.544Z,336
2018-05-16T09:19:11.835Z,241
2018-05-16T09:20:14.414Z,221
2018-05-16T09:21:16.423Z,474
2018-05-16T09:22:20.958Z,253
2018-05-16T09:23:23.018Z,204
2018-05-16T09:24:25.220Z,251
2018-05-16T09:25:27.767Z,441
2018-05-16T09:26:29.780Z,467
2018-05-16T09:27:32.146Z,488
2018-05-16T09:28:34.510Z,310
2018-05-16T09:29:36.786Z,234
2018-05-16T09:30:38.888Z,408
2018-05-16T09:31:40.915Z,452
2018-05-16T09:32:43.372Z,373
2018-05-16T09:33:45.399Z,411
2018-05-16T09:34:47.908Z,435
2018-05-16T09:35:49.963Z,205
2018-05-16T09:36:52.731Z,225
2018-05-16T09:37:55.047Z,301
2018-05-16T09:38:57.796Z,479
2018-05-16T09:40:00.094Z,195
2018-05-16T09:41:02.624Z,198
2018-05-16T09:42:04.646Z,250
2018-05-16T09:43:06.661Z,493
2018-05-16T09:44:08.913Z,197
2018-05-16T09:45:10.934Z,189
2018-05-16T09:46:13.997Z,196
2018-05-16T09:47:16.287Z,202
2018-05-16T09:48:18.959Z,183
2018-05-16T09:49:20.963Z,157
2018-05-16T09:50:23.115Z,145
2018-05-16T09:51:25.560Z,155
2018-05-16T09:52:27.495Z,170
2018-05-16T09:53:30.620Z,127
2018-05-16T09:54:32.806Z,108
2018-05-16T09:55:35.383Z,95
2018-05-16T09:56:37.394Z,86
2018-05-16T09:57:41.312Z,86
2018-05-16T09:58:44.105Z,98
2018-05-16T09:59:46.121Z,98
2018-05-16T10:00:48.135Z,101
2018-05-16T10:01:50.203Z,113
2018-05-16T10:02:52.314Z,131
2018-05-16T10:03:54.566Z,174
2018-05-16T10:04:56.574Z,276
2018-05-16T10:05:58.661Z,259
2018-05-16T10:07:01.425Z,259
2018-05-16T10:08:04.298Z,182
2018-05-16T10:09:06.385Z,161
2018-05-16T10:10:08.389Z,133
2018-05-16T10:11:11.319Z,118
2018-05-16T10:12:13.332Z,113
2018-05-16T10:13:15.459Z,116
2018-05-16T10:14:18.205Z,145
2018-05-16T10:15:20.598Z,298
2018-05-16T10:16:23.191Z,439
2018-05-16T10:17:25.248Z,333
2018-05-16T10:18:27.448Z,451
2018-05-16T10:19:29.460Z,187
2018-05-16T10:20:31.704Z,177
2018-05-16T10:21:33.705Z,180
2018-05-16T10:22:35.742Z,253
2018-05-16T10:23:38.243Z,212
2018-05-16T10:24:40.585Z,211
2018-05-16T10:25:42.715Z,195
2018-05-16T10:26:44.758Z,164
2018-05-16T10:27:46.868Z,141
2018-05-16T10:28:49.259Z,123
2018-05-16T10:29:51.360Z,114
2018-05-16T10:30:53.879Z,116
2018-05-16T10:31:56.409Z,126
2018-05-16T10:32:59.045Z,137
2018-05-16T10:34:01.050Z,141
2018-05-16T10:35:03.846Z,148
2018-05-16T10:36:06.245Z,118
2018-05-16T10:37:08.321Z,108
2018-05-16T10:38:10.529Z,104
2018-05-16T10:39:12.858Z,111
2018-05-16T10:40:15.403Z,125
2018-05-16T10:41:17.465Z,149
2018-05-16T10:42:19.622Z,226
2018-05-16T10:43:21.640Z,253
2018-05-16T10:44:23.945Z,227
2018-05-16T10:45:25.955Z,229
2018-05-16T10:46:27.971Z,246
2018-05-16T10:47:29.983Z,223
2018-05-16T10:48:32.002Z,223
2018-05-16T10:49:34.298Z,238
2018-05-16T10:50:36.294Z,338
2018-05-16T10:51:38.600Z,220
2018-05-16T10:52:40.618Z,244
2018-05-16T10:53:42.908Z,220
2018-05-16T10:54:44.918Z,227
2018-05-16T10:55:46.946Z,226
2018-05-16T10:56:49.540Z,188
2018-05-16T10:57:51.547Z,180
2018-05-16T10:58:53.555Z,254
2018-05-16T10:59:55.563Z,304
2018-05-16T11:00:57.585Z,255
2018-05-16T11:01:59.604Z,172
2018-05-16T11:03:01.920Z,172
2018-05-16T11:04:03.929Z,186
2018-05-16T11:05:05.933Z,207
2018-05-16T11:06:08.226Z,337
2018-05-16T11:07:10.899Z,348
2018-05-16T11:08:12.907Z,417
2018-05-16T11:09:14.915Z,184
2018-05-16T11:10:16.919Z,377
2018-05-16T11:11:18.927Z,422
2018-05-16T11:12:20.955Z,332
2018-05-16T11:13:23.265Z,238
2018-05-16T11:14:25.544Z,202
2018-05-16T11:15:27.946Z,191
2018-05-16T11:16:29.965Z,193
2018-05-16T11:17:31.976Z,268
2018-05-16T11:18:34.279Z,235
2018-05-16T11:19:36.290Z,207
2018-05-16T11:20:38.310Z,222
2018-05-16T11:21:40.307Z,295
2018-05-16T11:22:42.319Z,322
2018-05-16T11:23:44.332Z,498
2018-05-16T11:24:46.348Z,296
2018-05-16T11:25:48.360Z,199
2018-05-16T11:26:50.667Z,168
2018-05-16T11:27:52.678Z,146
2018-05-16T11:28:54.705Z,128
2018-05-16T11:29:57.005Z,119
2018-05-16T11:30:59.029Z,112
2018-05-16T11:32:01.045Z,104
2018-05-16T11:33:03.121Z,96
2018-05-16T11:34:05.067Z,93
2018-05-16T11:35:07.070Z,98
2018-05-16T11:36:09.076Z,111
2018-05-16T11:37:11.093Z,128
2018-05-16T11:38:13.098Z,149
2018-05-16T11:39:15.398Z,176
2018-05-16T11:40:17.404Z,242
2018-05-16T11:41:19.419Z,526
2018-05-16T11:42:21.749Z,626
2018-05-16T11:43:23.761Z,365
2018-05-16T11:44:25.775Z,269
2018-05-16T11:45:27.792Z,538
2018-05-16T11:46:29.790Z,536
2018-05-16T11:47:31.815Z,299
2018-05-16T11:48:33.829Z,224
2018-05-16T11:49:36.142Z,197
2018-05-16T11:50:38.434Z,227
2018-05-16T11:51:40.450Z,344
2018-05-16T11:52:42.468Z,337
2018-05-16T11:53:44.864Z,286
2018-05-16T11:54:46.876Z,220
2018-05-16T11:55:48.957Z,228
2018-05-16T11:56:50.899Z,584
2018-05-16T11:57:52.912Z,404
2018-05-16T11:58:54.924Z,302
2018-05-16T11:59:56.935Z,174
2018-05-16T12:00:58.947Z,152
2018-05-16T12:02:00.952Z,143
2018-05-16T12:03:02.968Z,141
2018-05-16T12:04:04.991Z,143
2018-05-16T12:05:07.014Z,149
2018-05-16T12:06:09.034Z,194
2018-05-16T12:07:11.145Z,162
2018-05-16T12:08:13.571Z,171
2018-05-16T12:09:15.673Z,200
2018-05-16T12:10:17.607Z,236
2018-05-16T12:11:19.632Z,238
2018-05-16T12:12:21.644Z,198
2018-05-16T12:13:23.648Z,191
2018-05-16T12:14:25.667Z,191
2018-05-16T12:15:27.678Z,174
2018-05-16T12:16:29.694Z,170
2018-05-16T12:17:31.716Z,172
2018-05-16T12:18:34.179Z,208
2018-05-16T12:19:36.141Z,175
2018-05-16T12:20:38.142Z,166
2018-05-16T12:21:40.200Z,152
2018-05-16T12:22:42.189Z,146
2018-05-16T12:23:45.104Z,141
2018-05-16T12:24:47.203Z,133
2018-05-16T12:25:49.224Z,129
2018-05-16T12:26:53.352Z,127
2018-05-16T12:27:56.005Z,130
2018-05-16T12:28:58.491Z,138
2018-05-16T12:30:00.819Z,143
2018-05-16T12:31:02.828Z,143
2018-05-16T12:32:05.134Z,132
2018-05-16T12:33:07.148Z,116
2018-05-16T12:34:09.456Z,102
2018-05-16T12:35:11.868Z,88
2018-05-16T12:36:14.275Z,80
2018-05-16T12:37:16.570Z,71
2018-05-16T12:38:18.978Z,67
2018-05-16T12:39:20.993Z,66
2018-05-16T12:40:23.139Z,64
2018-05-16T12:41:25.218Z,62
2018-05-16T12:42:27.612Z,63
2018-05-16T12:43:29.628Z,65
2018-05-16T12:44:31.947Z,66
2018-05-16T12:45:33.956Z,68
2018-05-16T12:46:36.335Z,73
2018-05-16T12:47:38.558Z,78
2018-05-16T12:48:40.570Z,83
2018-05-16T12:49:43.263Z,89
2018-05-16T12:50:45.272Z,93
2018-05-16T12:51:47.286Z,94
2018-05-16T12:52:49.593Z,97
2018-05-16T12:53:51.596Z,97
2018-05-16T12:54:54.000Z,94
2018-05-16T12:55:56.012Z,89
2018-05-16T12:56:58.063Z,83
2018-05-16T12:58:00.354Z,75
2018-05-16T12:59:02.651Z,69
2018-05-16T13:00:04.953Z,64
2018-05-16T13:01:06.951Z,62
2018-05-16T13:02:09.265Z,60
2018-05-16T13:03:11.299Z,60
2018-05-16T13:04:13.312Z,60
2018-05-16T13:05:16.472Z,60
2018-05-16T13:06:18.855Z,60
2018-05-16T13:07:21.167Z,59
2018-05-16T13:08:23.562Z,59
2018-05-16T13:09:25.631Z,59
2018-05-16T13:10:27.595Z,59
2018-05-16T13:11:29.606Z,59
2018-05-16T13:12:31.618Z,56
2018-05-16T13:13:33.633Z,55
2018-05-16T13:14:35.927Z,54
2018-05-16T13:15:37.945Z,53
2018-05-16T13:16:39.945Z,52
2018-05-16T13:17:41.987Z,51
2018-05-16T13:18:43.955Z,49
2018-05-16T13:19:45.976Z,47
2018-05-16T13:20:47.999Z,44
2018-05-16T13:21:50.398Z,42
2018-05-16T13:22:52.336Z,39
2018-05-16T13:23:54.349Z,36
2018-05-16T13:24:56.374Z,34
2018-05-16T13:25:58.382Z,32
2018-05-16T13:27:00.501Z,31
2018-05-16T13:28:02.413Z,30
2018-05-16T13:29:04.416Z,30
2018-05-16T13:30:06.722Z,29
2018-05-16T13:31:09.031Z,29
2018-05-16T13:32:11.044Z,29
2018-05-16T13:33:13.353Z,29
2018-05-16T13:34:15.657Z,29
2018-05-16T13:35:17.655Z,30
2018-05-16T13:36:20.633Z,30
2018-05-16T13:37:22.534Z,30
2018-05-16T13:38:24.558Z,30
2018-05-16T13:39:26.570Z,29
2018-05-16T13:40:28.860Z,29
2018-05-16T13:41:30.873Z,29
2018-05-16T13:42:32.897Z,29
2018-05-16T13:43:34.916Z,30
2018-05-16T13:44:36.933Z,31
2018-05-16T13:45:38.940Z,32
2018-05-16T13:46:42.452Z,33
2018-05-16T13:47:44.465Z,34
2018-05-16T13:48:46.476Z,35
2018-05-16T13:49:51.122Z,36
2018-05-16T13:50:53.773Z,37
2018-05-16T13:51:55.780Z,37
2018-05-16T13:52:59.068Z,37
2018-05-16T13:54:01.077Z,38
2018-05-16T13:55:03.080Z,39
2018-05-16T13:56:05.089Z,39
2018-05-16T13:57:07.096Z,40
2018-05-16T13:58:09.109Z,41
2018-05-16T13:59:11.498Z,42
2018-05-16T14:00:13.604Z,42
2018-05-16T14:01:15.523Z,43
2018-05-16T14:02:17.525Z,45
2018-05-16T14:03:19.997Z,47
2018-05-16T14:04:21.930Z,50
2018-05-16T14:05:23.939Z,52
2018-05-16T14:06:25.984Z,55
2018-05-16T14:07:27.951Z,56
2018-05-16T14:08:30.351Z,57
2018-05-16T14:09:32.358Z,56
2018-05-16T14:10:34.367Z,56
2018-05-16T14:11:36.664Z,57
2018-05-16T14:12:38.678Z,57
2018-05-16T14:13:40.686Z,58
2018-05-16T14:14:42.983Z,60
2018-05-16T14:15:44.993Z,63
2018-05-16T14:16:47.301Z,66
2018-05-16T14:17:49.311Z,70
2018-05-16T14:18:51.344Z,71
2018-05-16T14:19:53.344Z,76
2018-05-16T14:20:55.353Z,82
2018-05-16T14:21:57.381Z,91
2018-05-16T14:22:59.381Z,96
2018-05-16T14:24:01.385Z,100
2018-05-16T14:25:03.400Z,103
2018-05-16T14:26:05.417Z,105
2018-05-16T14:27:07.425Z,113
2018-05-16T14:28:09.445Z,131
2018-05-16T14:29:11.459Z,130
2018-05-16T14:30:13.472Z,128
2018-05-16T14:31:15.855Z,128
2018-05-16T14:32:17.877Z,130
2018-05-16T14:33:20.184Z,133
2018-05-16T14:34:22.262Z,139
2018-05-16T14:35:24.196Z,147
2018-05-16T14:36:26.305Z,148
2018-05-16T14:37:28.312Z,151
2018-05-16T14:38:30.328Z,152
2018-05-16T14:39:32.725Z,170
2018-05-16T14:40:35.115Z,150
2018-05-16T14:41:37.124Z,150
2018-05-16T14:42:39.173Z,150
2018-05-16T14:43:41.536Z,149